createdAt,value
2019-05-09T00:01:20.443Z,0.80
2019-05-09T00:06:16.983Z,1.10
2019-05-09T00:11:14.503Z,1.10
2019-05-09T00:16:10.657Z,1.30
2019-05-09T00:21:17.384Z,1.00
2019-05-09T00:26:13.542Z,0.90
2019-05-09T00:31:13.625Z,1.00
2019-05-09T00:36:09.732Z,1.10
2019-05-09T00:41:06.441Z,1.00
2019-05-09T00:46:05.064Z,1.20
2019-05-09T00:51:03.451Z,1.10
2019-05-09T00:55:59.209Z,1.07
2019-05-09T01:00:55.287Z,1.20
2019-05-09T01:05:51.259Z,1.30
2019-05-09T01:10:47.138Z,1.20
2019-05-09T01:15:43.999Z,1.10
2019-05-09T01:20:41.133Z,1.40
2019-05-09T01:25:37.215Z,1.50
2019-05-09T01:35:28.935Z,1.30
2019-05-09T01:40:24.697Z,1.20
2019-05-09T01:45:23.664Z,1.20
2019-05-09T01:50:23.192Z,1.17
2019-05-09T01:55:20.988Z,1.17
2019-05-09T02:00:17.995Z,1.20
2019-05-09T02:05:15.365Z,1.40
2019-05-09T02:10:13.923Z,1.40
2019-05-09T02:20:08.777Z,1.50
2019-05-09T02:25:05.685Z,1.20
2019-05-09T02:30:05.630Z,1.20
2019-05-09T02:35:00.096Z,1.47
2019-05-09T02:39:59.106Z,1.83
2019-05-09T02:44:54.650Z,1.90
2019-05-09T02:49:51.319Z,2.50
2019-05-09T02:54:50.063Z,2.50
2019-05-09T02:59:53.064Z,2.30
2019-05-09T03:04:49.162Z,2.40
2019-05-09T03:09:47.890Z,3.20
2019-05-09T03:14:43.920Z,3.40
2019-05-09T03:19:41.774Z,3.50
2019-05-09T03:24:39.421Z,3.17
2019-05-09T03:29:39.628Z,2.93
2019-05-09T03:34:37.282Z,3.27
2019-05-09T03:39:34.771Z,3.43
2019-05-09T03:44:31.549Z,3.50
2019-05-09T03:49:28.363Z,3.60
2019-05-09T03:54:24.390Z,3.73
2019-05-09T03:59:20.539Z,3.53
2019-05-09T04:04:17.365Z,3.40
2019-05-09T04:09:15.207Z,3.60
2019-05-09T04:14:21.465Z,3.40
2019-05-09T04:19:17.657Z,2.97
2019-05-09T04:24:14.338Z,2.83
2019-05-09T04:29:10.473Z,3.87
2019-05-09T04:34:07.734Z,2.90
2019-05-09T04:39:07.596Z,3.20
2019-05-09T04:44:05.114Z,2.97
2019-05-09T04:49:02.724Z,3.23
2019-05-09T04:53:59.496Z,3.13
2019-05-09T04:58:58.187Z,2.90
2019-05-09T05:03:57.329Z,2.77
2019-05-09T05:08:53.302Z,2.70
2019-05-09T05:13:50.075Z,2.80
2019-05-09T05:18:47.781Z,2.40
2019-05-09T05:23:50.047Z,2.50
2019-05-09T05:28:47.463Z,2.20
2019-05-09T05:33:45.402Z,2.13
2019-05-09T05:38:42.076Z,2.37
2019-05-09T05:43:44.092Z,2.40
2019-05-09T05:48:38.419Z,1.80
2019-05-09T05:53:34.517Z,2.00
2019-05-09T05:58:31.127Z,2.00
2019-05-09T06:03:28.214Z,2.10
2019-05-09T06:08:24.859Z,1.80
2019-05-09T06:13:21.263Z,1.80
2019-05-09T06:18:18.365Z,1.90
2019-05-09T06:23:17.430Z,1.90
2019-05-09T06:28:13.974Z,1.80
2019-05-09T06:33:10.325Z,1.70
2019-05-09T06:38:07.868Z,1.53
2019-05-09T06:43:20.804Z,1.50
2019-05-09T06:48:18.073Z,1.40
2019-05-09T06:53:15.077Z,1.30
2019-05-09T06:58:30.324Z,1.20
2019-05-09T07:03:28.393Z,1.50
2019-05-09T07:08:32.224Z,1.37
2019-05-09T07:13:28.637Z,1.60
2019-05-09T07:18:25.012Z,1.20
2019-05-09T07:23:20.849Z,1.47
2019-05-09T07:28:17.963Z,0.90
2019-05-09T07:38:31.137Z,1.33
2019-05-09T07:43:28.166Z,1.40
2019-05-09T07:48:25.493Z,1.20
2019-05-09T07:53:21.812Z,1.27
2019-05-09T07:58:19.073Z,1.20
2019-05-09T08:03:17.591Z,1.30
2019-05-09T08:08:18.317Z,1.20
2019-05-09T08:13:14.813Z,1.00
2019-05-09T08:18:12.205Z,1.20
2019-05-09T08:23:08.862Z,1.40
2019-05-09T08:28:04.861Z,1.37
2019-05-09T08:33:00.967Z,1.20
2019-05-09T08:37:58.320Z,1.60
2019-05-09T08:42:54.660Z,1.40
2019-05-09T08:47:50.494Z,1.40
2019-05-09T08:52:48.200Z,1.83
2019-05-09T08:57:44.231Z,1.30
2019-05-09T09:02:40.603Z,1.30
2019-05-09T09:07:37.946Z,1.40
2019-05-09T09:12:34.686Z,1.72
2019-05-09T09:17:31.036Z,1.40
2019-05-09T09:22:28.508Z,1.55
2019-05-09T09:27:24.537Z,1.22
2019-05-09T09:32:20.627Z,1.22
2019-05-09T09:37:18.489Z,1.50
2019-05-09T09:42:14.357Z,1.60
2019-05-09T09:47:10.282Z,1.27
2019-05-09T09:52:08.605Z,1.50
2019-05-09T09:57:04.398Z,1.13
2019-05-09T10:02:02.533Z,1.35
2019-05-09T10:06:58.499Z,1.47
2019-05-09T10:11:57.061Z,1.25
2019-05-09T10:17:10.639Z,1.25
2019-05-09T10:22:24.051Z,1.52
2019-05-09T10:27:18.495Z,1.40
2019-05-09T10:32:17.949Z,1.53
2019-05-09T10:37:13.350Z,1.33
2019-05-09T10:42:14.323Z,1.10
2019-05-09T10:47:12.063Z,1.40
2019-05-09T10:52:08.736Z,1.23
2019-05-09T10:57:04.779Z,1.30
2019-05-09T11:02:00.939Z,1.20
2019-05-09T11:06:58.267Z,1.27
2019-05-09T11:11:54.551Z,1.40
2019-05-09T11:17:06.423Z,1.87
2019-05-09T11:21:48.329Z,1.63
2019-05-09T11:26:44.404Z,1.90
2019-05-09T11:31:40.872Z,1.80
2019-05-09T11:36:37.888Z,1.60
2019-05-09T11:41:34.429Z,2.00
2019-05-09T11:46:30.357Z,1.93
2019-05-09T11:51:29.013Z,1.40
2019-05-09T11:56:24.176Z,1.40
2019-05-09T12:06:16.261Z,1.17
2019-05-09T12:11:13.156Z,1.20
2019-05-09T12:16:09.255Z,1.43
2019-05-09T12:21:05.138Z,1.20
2019-05-09T12:26:03.535Z,1.40
2019-05-09T12:30:59.367Z,1.47
2019-05-09T12:35:55.384Z,1.50
2019-05-09T12:40:51.237Z,1.50
2019-05-09T12:45:47.828Z,1.47
2019-05-09T12:50:43.754Z,1.17
2019-05-09T12:55:39.792Z,0.87
2019-05-09T13:00:35.622Z,0.90
2019-05-09T13:05:31.902Z,0.80
2019-05-09T13:10:28.343Z,0.70
2019-05-09T13:15:30.508Z,0.43
2019-05-09T13:20:24.251Z,0.40
2019-05-09T13:25:20.628Z,0.72
2019-05-09T13:30:18.957Z,1.00
2019-05-09T13:35:15.548Z,0.80
2019-05-09T13:40:11.594Z,0.68
2019-05-09T13:45:08.286Z,1.00
2019-05-09T13:50:05.455Z,0.80
2019-05-09T13:55:01.408Z,0.97
2019-05-09T13:59:58.670Z,1.00
2019-05-09T14:04:58.086Z,0.90
2019-05-09T14:09:53.235Z,1.23
2019-05-09T14:14:49.075Z,1.10
2019-05-09T14:19:47.007Z,1.10
2019-05-09T14:24:42.856Z,0.80
2019-05-09T14:29:39.630Z,1.77
2019-05-09T14:34:38.216Z,0.70
2019-05-09T14:39:33.418Z,0.60
2019-05-09T14:44:29.360Z,1.10
2019-05-09T14:49:39.832Z,0.70
2019-05-09T14:54:23.209Z,0.90
2019-05-09T14:59:19.394Z,0.97
2019-05-09T15:04:15.323Z,0.70
2019-05-09T15:09:11.456Z,1.20
2019-05-09T15:14:08.302Z,1.50
2019-05-09T15:19:04.881Z,2.00
2019-05-09T15:24:00.974Z,2.43
2019-05-09T15:28:57.957Z,1.27
2019-05-09T15:33:53.838Z,1.00
2019-05-09T15:38:49.898Z,1.00
2019-05-09T15:43:48.267Z,1.13
2019-05-09T15:48:43.586Z,1.40
2019-05-09T15:53:39.514Z,1.03
2019-05-09T15:58:37.911Z,0.87
2019-05-09T16:03:33.202Z,0.80
2019-05-09T16:08:29.362Z,0.90
2019-05-09T16:13:25.277Z,0.70
2019-05-09T16:18:21.458Z,0.83
2019-05-09T16:23:18.423Z,1.03
2019-05-09T16:28:15.065Z,1.33
2019-05-09T16:33:11.614Z,1.43
2019-05-09T16:38:10.673Z,1.30
2019-05-09T16:43:05.638Z,1.30
2019-05-09T16:48:01.807Z,1.40
2019-05-09T16:52:58.437Z,1.60
2019-05-09T16:57:54.822Z,1.00
2019-05-09T17:02:50.722Z,1.00
2019-05-09T17:07:47.627Z,1.00
2019-05-09T17:12:43.638Z,0.87
2019-05-09T17:17:39.663Z,1.17
2019-05-09T17:23:08.224Z,1.00
2019-05-09T17:27:55.653Z,0.90
2019-05-09T17:32:50.188Z,1.33
2019-05-09T17:37:48.096Z,1.20
2019-05-09T17:42:43.801Z,1.07
2019-05-09T17:47:39.737Z,0.90
2019-05-09T17:52:35.827Z,0.90
2019-05-09T17:57:31.641Z,1.37
2019-05-09T18:02:28.162Z,1.00
2019-05-09T18:07:24.062Z,0.80
2019-05-09T18:12:20.279Z,1.03
2019-05-09T18:17:18.005Z,1.00
2019-05-09T18:22:14.520Z,1.50
2019-05-09T18:27:10.373Z,2.13
2019-05-09T18:32:18.485Z,2.67
2019-05-09T18:37:14.426Z,1.73
2019-05-09T18:42:10.896Z,2.20
2019-05-09T18:47:07.859Z,2.30
2019-05-09T18:52:04.398Z,1.50
2019-05-09T18:57:00.470Z,1.20
2019-05-09T19:01:56.561Z,1.07
2019-05-09T19:06:52.738Z,1.20
2019-05-09T19:11:48.939Z,1.20
2019-05-09T19:16:46.656Z,1.30
2019-05-09T19:21:44.747Z,1.00
2019-05-09T19:26:40.675Z,1.50
2019-05-09T19:31:37.089Z,1.30
2019-05-09T19:36:34.086Z,0.90
2019-05-09T19:41:30.306Z,1.10
2019-05-09T19:46:26.140Z,1.50
2019-05-09T19:51:22.473Z,1.07
2019-05-09T19:56:18.409Z,1.20
2019-05-09T20:01:14.728Z,1.33
2019-05-09T20:06:10.675Z,1.40
2019-05-09T20:11:20.812Z,1.10
2019-05-09T20:16:16.786Z,0.90
2019-05-09T20:21:12.936Z,0.90
2019-05-09T20:26:09.178Z,1.20
2019-05-09T20:31:05.063Z,1.00
2019-05-09T20:36:03.318Z,1.10
2019-05-09T20:45:55.503Z,0.93
2019-05-09T20:50:51.330Z,1.10
2019-05-09T20:55:47.394Z,1.00
2019-05-09T21:00:43.297Z,1.47
2019-05-09T21:05:39.533Z,1.40
2019-05-09T21:10:35.452Z,1.37
2019-05-09T21:15:31.642Z,1.27
2019-05-09T21:20:27.587Z,1.20
2019-05-09T21:25:23.759Z,1.33
2019-05-09T21:30:19.700Z,1.30
2019-05-09T21:35:16.439Z,1.50
2019-05-09T21:40:12.498Z,1.40
2019-05-09T21:45:09.929Z,1.60
2019-05-09T21:50:05.978Z,1.63
2019-05-09T21:55:02.180Z,1.67
2019-05-09T21:59:58.030Z,1.70
2019-05-09T22:04:54.479Z,1.90
2019-05-09T22:09:50.433Z,1.93
2019-05-09T22:14:46.578Z,1.97
2019-05-09T22:19:42.912Z,1.70
2019-05-09T22:24:39.095Z,1.97
2019-05-09T22:29:34.916Z,2.10
2019-05-09T22:34:31.034Z,2.00
2019-05-09T22:39:26.898Z,2.00
